createdAt,value
2022-10-20T00:04:20.617Z,101099.00
2022-10-20T00:06:47.011Z,101099.03
2022-10-20T00:09:13.736Z,101100.72
2022-10-20T00:11:40.327Z,101100.69
2022-10-20T00:14:07.041Z,101089.28
2022-10-20T00:16:37.540Z,101081.47
2022-10-20T00:19:04.539Z,101078.94
2022-10-20T00:21:32.404Z,101065.84
2022-10-20T00:24:01.147Z,101070.19
2022-10-20T00:26:28.731Z,101051.03
2022-10-20T00:28:55.620Z,101046.66
2022-10-20T00:31:24.314Z,101035.28
2022-10-20T00:33:50.742Z,101036.16
2022-10-20T00:36:19.570Z,101038.75
2022-10-20T00:38:46.339Z,101037.91
2022-10-20T00:41:14.680Z,101034.31
2022-10-20T00:43:48.720Z,101024.69
2022-10-20T00:46:40.466Z,101025.44
2022-10-20T00:49:21.927Z,101036.00
2022-10-20T00:51:49.709Z,101028.97
2022-10-20T00:54:19.699Z,101030.69
2022-10-20T00:56:48.442Z,101028.06
2022-10-20T00:59:19.183Z,101019.41
2022-10-20T01:01:46.041Z,101022.91
2022-10-20T01:04:12.787Z,101023.84
2022-10-20T01:06:39.336Z,101018.66
2022-10-20T01:09:06.185Z,101023.91
2022-10-20T01:11:55.072Z,101010.81
2022-10-20T01:15:00.969Z,101001.22
2022-10-20T01:18:02.965Z,100997.72
2022-10-20T01:20:35.322Z,100998.59
2022-10-20T01:23:39.070Z,100995.13
2022-10-20T01:26:33.456Z,100989.91
2022-10-20T01:29:04.956Z,100993.41
2022-10-20T01:32:00.776Z,100978.66
2022-10-20T01:34:33.290Z,100977.78
2022-10-20T01:37:14.144Z,100979.50
2022-10-20T01:40:02.171Z,100983.06
2022-10-20T01:42:29.876Z,100975.28
2022-10-20T01:45:01.038Z,100977.91
2022-10-20T01:47:29.031Z,100982.19
2022-10-20T01:49:57.679Z,100976.09
2022-10-20T01:52:24.932Z,100982.25
2022-10-20T01:54:51.335Z,100982.25
2022-10-20T01:57:42.760Z,100983.06
2022-10-20T02:00:12.191Z,100966.53
2022-10-20T02:02:56.971Z,100961.28
2022-10-20T02:05:48.800Z,100958.69
2022-10-20T02:08:35.046Z,100943.00
2022-10-20T02:11:05.549Z,100942.19
2022-10-20T02:13:35.749Z,100929.06
2022-10-20T02:16:09.325Z,100929.88
2022-10-20T02:18:41.661Z,100918.53
2022-10-20T02:21:08.522Z,100913.31
2022-10-20T02:23:38.908Z,100906.28
2022-10-20T02:26:07.652Z,100906.31
2022-10-20T02:28:37.797Z,100907.16
2022-10-20T02:31:04.991Z,100898.34
2022-10-20T02:33:32.163Z,100904.47
2022-10-20T02:35:59.641Z,100899.22
2022-10-20T02:38:26.084Z,100904.44
2022-10-20T02:40:52.511Z,100905.31
2022-10-20T02:43:18.911Z,100888.75
2022-10-20T02:45:45.353Z,100893.16
2022-10-20T02:48:11.731Z,100885.31
2022-10-20T02:50:38.936Z,100896.69
2022-10-20T02:53:05.655Z,100894.09
2022-10-20T02:55:32.052Z,100896.69
2022-10-20T02:57:58.540Z,100897.56
2022-10-20T03:00:29.374Z,100893.13
2022-10-20T03:02:56.128Z,100890.50
2022-10-20T03:05:22.610Z,100878.19
2022-10-20T03:07:49.015Z,100872.94
2022-10-20T03:10:15.394Z,100873.78
2022-10-20T03:12:41.781Z,100865.94
2022-10-20T03:15:08.377Z,100869.44
2022-10-20T03:17:34.975Z,100859.88
2022-10-20T03:20:02.672Z,100857.28
2022-10-20T03:24:56.422Z,100865.13
2022-10-20T03:27:22.826Z,100863.38
2022-10-20T03:29:49.306Z,100866.84
2022-10-20T03:32:15.866Z,100859.84
2022-10-20T03:34:42.300Z,100856.38
2022-10-20T03:37:08.687Z,100852.00
2022-10-20T03:39:35.076Z,100844.00
2022-10-20T03:42:01.466Z,100849.25
2022-10-20T03:44:27.913Z,100847.47
2022-10-20T03:46:54.293Z,100840.44
2022-10-20T03:49:20.733Z,100836.88
2022-10-20T03:51:47.107Z,100835.13
2022-10-20T03:54:13.511Z,100839.50
2022-10-20T03:56:40.381Z,100840.28
2022-10-20T03:59:06.861Z,100835.09
2022-10-20T04:01:34.884Z,100832.50
2022-10-20T04:04:01.377Z,100832.47
2022-10-20T04:06:28.129Z,100828.94
2022-10-20T04:08:54.531Z,100822.88
2022-10-20T04:11:21.047Z,100809.81
2022-10-20T04:13:47.478Z,100801.97
2022-10-20T04:16:13.991Z,100798.41
2022-10-20T04:18:40.510Z,100798.47
2022-10-20T04:21:06.882Z,100811.53
2022-10-20T04:23:33.325Z,100815.78
2022-10-20T04:25:59.814Z,100807.94
2022-10-20T04:28:26.214Z,100806.13
2022-10-20T04:30:52.707Z,100806.25
2022-10-20T04:33:19.109Z,100787.88
2022-10-20T04:35:45.549Z,100780.78
2022-10-20T04:38:11.965Z,100774.69
2022-10-20T04:40:38.418Z,100779.84
2022-10-20T04:43:04.807Z,100779.84
2022-10-20T04:45:31.230Z,100769.41
2022-10-20T04:47:57.647Z,100761.50
2022-10-20T04:50:24.075Z,100759.75
2022-10-20T04:52:51.315Z,100758.84
2022-10-20T04:55:17.768Z,100750.97
2022-10-20T04:57:44.356Z,100750.94
2022-10-20T05:00:11.234Z,100746.59
2022-10-20T05:02:37.647Z,100727.44
2022-10-20T05:05:04.964Z,100726.50
2022-10-20T05:07:31.385Z,100716.00
2022-10-20T05:09:57.799Z,100725.63
2022-10-20T05:12:24.203Z,100726.41
2022-10-20T05:14:50.603Z,100740.31
2022-10-20T05:17:16.971Z,100722.88
2022-10-20T05:19:43.382Z,100718.47
2022-10-20T05:22:09.789Z,100706.31
2022-10-20T05:24:36.218Z,100703.75
2022-10-20T05:27:03.016Z,100699.47
2022-10-20T05:29:29.546Z,100692.50
2022-10-20T05:31:55.949Z,100700.31
2022-10-20T05:34:22.475Z,100702.00
2022-10-20T05:36:48.881Z,100713.34
2022-10-20T05:39:15.306Z,100695.97
2022-10-20T05:41:41.704Z,100690.78
2022-10-20T05:44:11.052Z,100692.41
2022-10-20T05:46:41.080Z,100688.97
2022-10-20T05:49:11.317Z,100683.69
2022-10-20T05:51:37.801Z,100689.88
2022-10-20T05:54:04.316Z,100689.88
2022-10-20T05:56:31.465Z,100689.94
2022-10-20T05:58:59.083Z,100682.91
2022-10-20T06:01:39.960Z,100695.94
2022-10-20T06:04:08.661Z,100681.97
2022-10-20T06:06:36.119Z,100681.16
2022-10-20T06:09:05.840Z,100677.69
2022-10-20T06:11:37.046Z,100681.19
2022-10-20T06:14:05.693Z,100682.88
2022-10-20T06:16:32.781Z,100681.97
2022-10-20T06:18:59.261Z,100676.59
2022-10-20T06:21:32.244Z,100681.00
2022-10-20T06:24:00.431Z,100686.19
2022-10-20T06:26:36.639Z,100680.91
2022-10-20T06:29:05.395Z,100688.78
2022-10-20T06:31:36.060Z,100686.03
2022-10-20T06:34:05.345Z,100693.84
2022-10-20T06:36:36.287Z,100681.56
2022-10-20T06:39:04.977Z,100690.28
2022-10-20T06:41:32.495Z,100692.81
2022-10-20T06:43:59.889Z,100709.41
2022-10-20T06:46:29.047Z,100704.13
2022-10-20T06:48:58.602Z,100717.13
2022-10-20T06:51:25.669Z,100707.50
2022-10-20T06:53:52.704Z,100690.75
2022-10-20T06:56:21.563Z,100688.09
2022-10-20T06:58:49.658Z,100682.91
2022-10-20T07:01:23.362Z,100685.47
2022-10-20T07:03:53.067Z,100688.94
2022-10-20T07:06:22.499Z,100681.84
2022-10-20T07:08:51.002Z,100685.34
2022-10-20T07:11:19.956Z,100682.63
2022-10-20T07:13:49.092Z,100693.88
2022-10-20T07:16:18.011Z,100686.84
2022-10-20T07:21:19.317Z,100698.94
2022-10-20T07:23:47.153Z,100706.69
2022-10-20T07:26:22.902Z,100720.56
2022-10-20T07:28:55.523Z,100724.16
2022-10-20T07:31:27.136Z,100716.22
2022-10-20T07:34:06.959Z,100710.84
2022-10-20T07:36:42.756Z,100705.56
2022-10-20T07:39:10.787Z,100696.69
2022-10-20T07:41:39.467Z,100686.09
2022-10-20T07:44:07.682Z,100677.25
2022-10-20T07:46:34.297Z,100671.97
2022-10-20T07:49:23.954Z,100674.34
2022-10-20T07:51:47.164Z,100681.13
2022-10-20T07:54:13.631Z,100674.09
2022-10-20T07:56:43.061Z,100678.44
2022-10-20T07:59:11.176Z,100670.50
2022-10-20T08:01:38.162Z,100676.47
2022-10-20T08:04:04.754Z,100686.06
2022-10-20T08:06:31.548Z,100692.19
2022-10-20T08:08:58.571Z,100700.78
2022-10-20T08:11:25.128Z,100686.78
2022-10-20T08:13:51.942Z,100690.25
2022-10-20T08:16:22.615Z,100678.00
2022-10-20T08:19:43.761Z,100689.22
2022-10-20T08:21:44.191Z,100689.16
2022-10-20T08:24:10.906Z,100683.84
2022-10-20T08:26:37.358Z,100682.88
2022-10-20T08:29:03.766Z,100687.22
2022-10-20T08:31:30.270Z,100681.94
2022-10-20T08:33:57.254Z,100678.41
2022-10-20T08:36:23.750Z,100684.50
2022-10-20T08:38:50.150Z,100671.41
2022-10-20T08:41:22.648Z,100676.56
2022-10-20T08:43:51.892Z,100661.63
2022-10-20T08:46:21.184Z,100686.91
2022-10-20T08:48:48.029Z,100677.00
2022-10-20T08:51:28.067Z,100680.22
2022-10-20T08:53:59.646Z,100678.28
2022-10-20T08:56:29.705Z,100680.84
2022-10-20T08:58:56.793Z,100670.34
2022-10-20T09:01:30.806Z,100673.03
2022-10-20T09:04:16.084Z,100665.94
2022-10-20T09:06:47.287Z,100665.03
2022-10-20T09:09:17.904Z,100669.44
2022-10-20T09:11:44.818Z,100680.69
2022-10-20T09:14:12.155Z,100682.34
2022-10-20T09:16:55.339Z,100677.09
2022-10-20T09:19:27.144Z,100664.75
2022-10-20T09:21:57.885Z,100657.84
2022-10-20T09:24:27.286Z,100638.63
2022-10-20T09:26:58.741Z,100647.44
2022-10-20T09:29:37.476Z,100651.72
2022-10-20T09:32:41.230Z,100636.81
2022-10-20T09:35:29.382Z,100643.63
2022-10-20T09:38:22.490Z,100635.63
2022-10-20T09:40:58.157Z,100626.72
2022-10-20T09:43:26.610Z,100633.72
2022-10-20T09:45:56.698Z,100642.50
2022-10-20T09:48:36.374Z,100641.59
2022-10-20T09:51:05.959Z,100637.13
2022-10-20T09:53:57.623Z,100637.06
2022-10-20T09:56:37.033Z,100621.19
2022-10-20T09:59:08.023Z,100629.91
2022-10-20T10:01:34.518Z,100636.88
2022-10-20T10:04:02.087Z,100635.97
2022-10-20T10:06:37.697Z,100654.31
2022-10-20T10:09:26.546Z,100670.84
2022-10-20T10:12:14.255Z,100669.81
2022-10-20T10:14:52.319Z,100658.38
2022-10-20T10:17:33.583Z,100662.72
2022-10-20T10:20:01.819Z,100658.44
2022-10-20T10:22:28.575Z,100668.22
2022-10-20T10:24:56.015Z,100662.09
2022-10-20T10:27:30.215Z,100689.09
2022-10-20T10:30:16.532Z,100681.94
2022-10-20T10:32:47.689Z,100675.56
2022-10-20T10:35:33.333Z,100663.97
2022-10-20T10:38:00.504Z,100669.78
2022-10-20T10:40:48.848Z,100665.94
2022-10-20T10:43:29.854Z,100663.97
2022-10-20T10:46:02.780Z,100659.66
2022-10-20T10:48:47.159Z,100656.13
2022-10-20T10:51:35.407Z,100643.75
2022-10-20T10:54:25.739Z,100644.63
2022-10-20T10:57:16.161Z,100638.63
2022-10-20T10:59:44.232Z,100630.59
2022-10-20T11:02:40.450Z,100616.63
2022-10-20T11:05:19.014Z,100613.25
2022-10-20T11:08:06.762Z,100610.88
2022-10-20T11:10:51.940Z,100601.31
2022-10-20T11:13:36.274Z,100615.59
2022-10-20T11:16:33.356Z,100606.13
2022-10-20T11:19:43.372Z,100607.09
2022-10-20T11:22:15.951Z,100622.03
2022-10-20T11:24:52.842Z,100617.75
2022-10-20T11:27:25.382Z,100629.25
2022-10-20T11:30:21.030Z,100633.75
2022-10-20T11:33:16.435Z,100637.38
2022-10-20T11:36:08.708Z,100641.94
2022-10-20T11:38:43.233Z,100635.81
2022-10-20T11:41:19.828Z,100642.16
2022-10-20T11:43:49.326Z,100637.00
2022-10-20T11:46:20.782Z,100641.53
2022-10-20T11:48:52.588Z,100646.03
2022-10-20T11:51:27.767Z,100639.19
2022-10-20T11:54:13.121Z,100649.75
2022-10-20T11:57:13.133Z,100638.41
2022-10-20T12:00:13.666Z,100640.28
2022-10-20T12:03:19.978Z,100646.47
2022-10-20T12:06:10.078Z,100636.81
2022-10-20T12:09:14.418Z,100646.47
2022-10-20T12:11:57.362Z,100642.19
2022-10-20T12:14:26.897Z,100638.75
2022-10-20T12:16:58.301Z,100628.22
2022-10-20T12:19:27.968Z,100619.53
2022-10-20T12:22:03.089Z,100611.72
2022-10-20T12:24:39.823Z,100600.47
2022-10-20T12:27:09.272Z,100590.84
2022-10-20T12:29:35.631Z,100582.16
2022-10-20T12:32:40.279Z,100569.91
2022-10-20T12:35:09.924Z,100571.66
2022-10-20T12:37:41.133Z,100570.69
2022-10-20T12:40:10.086Z,100553.19
2022-10-20T12:42:39.301Z,100549.66
2022-10-20T12:45:23.965Z,100548.63
2022-10-20T12:48:01.952Z,100552.00
2022-10-20T12:50:42.439Z,100548.34
2022-10-20T12:53:26.714Z,100549.06
2022-10-20T12:55:59.983Z,100564.72
2022-10-20T12:58:31.404Z,100562.72
2022-10-20T13:00:58.439Z,100558.16
2022-10-20T13:03:46.740Z,100565.09
2022-10-20T13:06:40.442Z,100552.72
2022-10-20T13:09:07.078Z,100555.09
2022-10-20T13:11:37.595Z,100570.81
2022-10-20T13:14:13.256Z,100571.75
2022-10-20T13:16:49.359Z,100568.09
2022-10-20T13:19:27.224Z,100561.09
2022-10-20T13:21:53.810Z,100549.66
2022-10-20T13:24:23.226Z,100550.38
2022-10-20T13:26:54.411Z,100549.53
2022-10-20T13:29:26.988Z,100527.44
2022-10-20T13:32:06.057Z,100543.09
2022-10-20T13:34:50.378Z,100545.50
2022-10-20T13:37:32.367Z,100541.94
2022-10-20T13:40:23.772Z,100540.16
2022-10-20T13:43:09.121Z,100542.78
2022-10-20T13:46:09.983Z,100531.16
2022-10-20T13:48:48.531Z,100532.00
2022-10-20T13:51:28.833Z,100518.72
2022-10-20T13:54:00.843Z,100507.91
2022-10-20T13:56:35.293Z,100518.78
2022-10-20T13:59:18.764Z,100530.53
2022-10-20T14:01:48.624Z,100531.25
2022-10-20T14:04:31.108Z,100531.34
2022-10-20T14:07:05.782Z,100524.28
2022-10-20T14:09:32.244Z,100518.16
2022-10-20T14:12:02.341Z,100517.28
2022-10-20T14:14:30.180Z,100519.94
2022-10-20T14:17:00.622Z,100516.31
2022-10-20T14:19:28.688Z,100509.31
2022-10-20T14:22:10.504Z,100505.75
2022-10-20T14:24:42.367Z,100489.16
2022-10-20T14:27:18.432Z,100493.38
2022-10-20T14:29:45.576Z,100490.81
2022-10-20T14:32:31.396Z,100495.22
2022-10-20T14:35:03.771Z,100497.72
2022-10-20T14:37:37.447Z,100492.47
2022-10-20T14:40:19.170Z,100500.38
2022-10-20T14:42:45.884Z,100508.41
2022-10-20T14:45:21.437Z,100508.41
2022-10-20T14:47:49.172Z,100509.25
2022-10-20T14:50:30.761Z,100503.78
2022-10-20T14:52:57.338Z,100496.72
2022-10-20T14:55:41.621Z,100495.00
2022-10-20T14:58:34.453Z,100502.00
2022-10-20T15:01:15.662Z,100494.19
2022-10-20T15:03:42.221Z,100494.19
2022-10-20T15:06:15.122Z,100488.97
2022-10-20T15:08:53.204Z,100497.66
2022-10-20T15:11:25.426Z,100499.50
2022-10-20T15:13:54.111Z,100498.66
2022-10-20T15:16:44.788Z,100488.31
2022-10-20T15:19:31.453Z,100492.75
2022-10-20T15:22:07.146Z,100495.44
2022-10-20T15:24:33.531Z,100488.47
2022-10-20T15:27:00.856Z,100486.88
2022-10-20T15:29:27.550Z,100478.22
2022-10-20T15:31:54.043Z,100474.84
2022-10-20T15:34:20.815Z,100474.03
2022-10-20T15:36:50.339Z,100471.50
2022-10-20T15:39:17.782Z,100468.09
2022-10-20T15:41:44.189Z,100468.22
2022-10-20T15:44:15.219Z,100462.97
2022-10-20T15:46:43.374Z,100467.38
2022-10-20T15:49:09.853Z,100468.38
2022-10-20T15:51:39.976Z,100458.75
2022-10-20T15:54:07.599Z,100456.19
2022-10-20T15:56:35.242Z,100448.38
2022-10-20T15:59:02.571Z,100455.47
2022-10-20T16:01:29.291Z,100452.00
2022-10-20T16:03:55.859Z,100443.25
2022-10-20T16:06:22.606Z,100440.66
2022-10-20T16:08:50.464Z,100427.59
2022-10-20T16:11:20.703Z,100432.88
2022-10-20T16:13:47.840Z,100439.88
2022-10-20T16:16:17.479Z,100435.56
2022-10-20T16:18:44.582Z,100435.56
2022-10-20T16:21:11.343Z,100434.69
2022-10-20T16:23:42.290Z,100435.69
2022-10-20T16:26:12.765Z,100430.53
2022-10-20T16:28:39.196Z,100425.38
2022-10-20T16:31:10.391Z,100424.44
2022-10-20T16:33:37.690Z,100417.47
2022-10-20T16:38:39.078Z,100415.75
2022-10-20T16:41:09.916Z,100422.00
2022-10-20T16:43:40.749Z,100420.28
2022-10-20T16:46:08.562Z,100425.63
2022-10-20T16:48:37.075Z,100435.38
2022-10-20T16:51:06.356Z,100425.81
2022-10-20T16:53:32.827Z,100422.41
2022-10-20T16:55:59.203Z,100415.38
2022-10-20T16:58:25.627Z,100420.63
2022-10-20T17:01:04.410Z,100418.00
2022-10-20T17:03:31.125Z,100424.06
2022-10-20T17:06:00.381Z,100424.09
2022-10-20T17:08:31.898Z,100429.44
2022-10-20T17:11:00.579Z,100430.31
2022-10-20T17:13:28.020Z,100425.97
2022-10-20T17:15:54.437Z,100420.72
2022-10-20T17:18:21.804Z,100421.56
2022-10-20T17:20:54.055Z,100422.53
2022-10-20T17:23:22.205Z,100432.16
2022-10-20T17:25:49.914Z,100429.53
2022-10-20T17:28:16.680Z,100422.47
2022-10-20T17:30:45.500Z,100426.03
2022-10-20T17:33:12.192Z,100422.47
2022-10-20T17:35:38.638Z,100428.59
2022-10-20T17:38:06.274Z,100428.50
2022-10-20T17:40:37.667Z,100430.28
2022-10-20T17:43:04.243Z,100427.66
2022-10-20T17:45:32.856Z,100427.75
2022-10-20T17:48:01.468Z,100431.34
2022-10-20T17:50:27.915Z,100431.41
2022-10-20T17:52:54.411Z,100425.28
2022-10-20T17:55:20.997Z,100434.97
2022-10-20T17:57:47.414Z,100443.66
2022-10-20T18:00:22.595Z,100444.56
2022-10-20T18:02:53.463Z,100434.13
2022-10-20T18:05:19.899Z,100427.06
2022-10-20T18:07:46.456Z,100428.78
2022-10-20T18:10:12.980Z,100423.53
2022-10-20T18:12:39.742Z,100423.53
2022-10-20T18:15:06.812Z,100427.06
2022-10-20T18:17:35.400Z,100418.25
2022-10-20T18:20:01.959Z,100418.19
2022-10-20T18:22:28.354Z,100411.09
2022-10-20T18:24:54.774Z,100411.03
2022-10-20T18:27:22.257Z,100411.75
2022-10-20T18:29:48.784Z,100412.53
2022-10-20T18:32:15.276Z,100405.50
2022-10-20T18:34:43.392Z,100401.09
2022-10-20T18:37:09.909Z,100394.13
2022-10-20T18:39:36.406Z,100397.56
2022-10-20T18:42:02.825Z,100397.53
2022-10-20T18:47:01.733Z,100393.00
2022-10-20T18:49:28.180Z,100394.72
2022-10-20T18:51:54.648Z,100390.31
2022-10-20T18:54:23.260Z,100378.13
2022-10-20T18:56:49.692Z,100378.13
2022-10-20T18:59:17.177Z,100383.41
2022-10-20T19:01:44.452Z,100382.41
2022-10-20T19:04:12.315Z,100391.16
2022-10-20T19:06:44.503Z,100379.00
2022-10-20T19:09:17.027Z,100379.84
2022-10-20T19:11:44.312Z,100375.38
2022-10-20T19:14:11.554Z,100374.66
2022-10-20T19:16:39.475Z,100369.44
2022-10-20T19:19:09.127Z,100361.66
2022-10-20T19:21:36.410Z,100360.91
2022-10-20T19:24:07.109Z,100360.06
2022-10-20T19:26:39.607Z,100363.66
2022-10-20T19:29:13.448Z,100368.97
2022-10-20T19:31:43.065Z,100357.50
2022-10-20T19:34:13.242Z,100354.09
2022-10-20T19:36:40.987Z,100347.13
2022-10-20T19:39:09.048Z,100337.56
2022-10-20T19:41:35.963Z,100339.34
2022-10-20T19:44:03.077Z,100343.69
2022-10-20T19:46:29.571Z,100335.94
2022-10-20T19:48:57.309Z,100339.50
2022-10-20T19:51:23.927Z,100342.06
2022-10-20T19:53:50.970Z,100347.31
2022-10-20T19:56:17.940Z,100336.09
2022-10-20T19:58:46.804Z,100337.06
2022-10-20T20:01:14.287Z,100331.03
2022-10-20T20:03:41.000Z,100325.72
2022-10-20T20:06:16.210Z,100309.94
2022-10-20T20:08:48.999Z,100301.19
2022-10-20T20:11:26.856Z,100300.34
2022-10-20T20:13:55.835Z,100296.78
2022-10-20T20:16:22.766Z,100292.41
2022-10-20T20:18:49.278Z,100293.22
2022-10-20T20:21:16.560Z,100286.28
2022-10-20T20:24:00.225Z,100285.38
2022-10-20T20:26:33.098Z,100279.13
2022-10-20T20:29:00.531Z,100271.31
2022-10-20T20:31:28.004Z,100285.25
2022-10-20T20:33:56.564Z,100294.00
2022-10-20T20:36:23.549Z,100292.22
2022-10-20T20:38:52.536Z,100298.28
2022-10-20T20:41:21.718Z,100296.56
2022-10-20T20:43:48.151Z,100303.59
2022-10-20T20:46:17.079Z,100304.41
2022-10-20T20:48:43.851Z,100304.53
2022-10-20T20:51:11.484Z,100287.75
2022-10-20T20:53:39.459Z,100286.84
2022-10-20T20:56:09.202Z,100276.22
2022-10-20T20:58:36.456Z,100283.19
2022-10-20T21:01:17.911Z,100283.25
2022-10-20T21:03:45.320Z,100285.03
2022-10-20T21:06:18.238Z,100271.81
2022-10-20T21:08:50.061Z,100278.66
2022-10-20T21:11:19.756Z,100276.78
2022-10-20T21:13:47.826Z,100271.59
2022-10-20T21:16:19.609Z,100272.31
2022-10-20T21:18:48.002Z,100269.69
2022-10-20T21:21:22.609Z,100272.19
2022-10-20T21:23:49.479Z,100266.88
2022-10-20T21:26:17.779Z,100259.88
2022-10-20T21:28:44.819Z,100259.72
2022-10-20T21:31:14.207Z,100271.53
2022-10-20T21:33:41.085Z,100280.19
2022-10-20T21:36:10.927Z,100273.88
2022-10-20T21:38:38.875Z,100289.66
2022-10-20T21:41:09.583Z,100285.41
2022-10-20T21:43:38.585Z,100299.47
2022-10-20T21:46:13.749Z,100307.31
2022-10-20T21:48:41.063Z,100307.44
2022-10-20T21:51:20.339Z,100300.44
2022-10-20T21:53:47.310Z,100296.91
2022-10-20T21:56:14.525Z,100290.94
2022-10-20T21:58:41.419Z,100301.47
2022-10-20T22:01:13.458Z,100304.09
2022-10-20T22:03:40.538Z,100307.44
2022-10-20T22:06:09.016Z,100307.31
2022-10-20T22:08:37.389Z,100307.22
2022-10-20T22:11:05.985Z,100308.09
2022-10-20T22:13:33.485Z,100303.63
2022-10-20T22:16:00.209Z,100307.94
2022-10-20T22:18:26.744Z,100306.03
2022-10-20T22:20:53.294Z,100302.47
2022-10-20T22:23:19.796Z,100296.13
2022-10-20T22:25:46.596Z,100284.81
2022-10-20T22:28:13.032Z,100285.69
2022-10-20T22:30:39.461Z,100287.34
2022-10-20T22:33:05.852Z,100297.13
2022-10-20T22:35:32.247Z,100301.38
2022-10-20T22:37:58.647Z,100307.38
2022-10-20T22:40:25.081Z,100332.41
2022-10-20T22:42:51.488Z,100327.97
2022-10-20T22:45:17.916Z,100329.59
2022-10-20T22:47:44.449Z,100333.94
2022-10-20T22:50:11.285Z,100340.31
2022-10-20T22:52:37.922Z,100334.16
2022-10-20T22:55:04.938Z,100335.97
2022-10-20T22:57:31.504Z,100338.66
2022-10-20T22:59:58.048Z,100320.16
2022-10-20T23:02:24.616Z,100306.06
2022-10-20T23:04:51.086Z,100302.78
2022-10-20T23:07:17.519Z,100295.91
2022-10-20T23:09:43.918Z,100297.75
2022-10-20T23:12:10.297Z,100287.22
2022-10-20T23:14:36.749Z,100279.53
2022-10-20T23:17:03.159Z,100269.03
2022-10-20T23:19:29.587Z,100271.72
2022-10-20T23:21:56.051Z,100266.53
2022-10-20T23:24:22.429Z,100266.59
2022-10-20T23:26:48.866Z,100263.91
2022-10-20T23:29:15.242Z,100259.44
2022-10-20T23:31:41.625Z,100266.41
2022-10-20T23:34:09.391Z,100266.47
2022-10-20T23:36:39.008Z,100262.06
2022-10-20T23:39:05.891Z,100251.47
2022-10-20T23:41:32.319Z,100250.59
2022-10-20T23:43:58.758Z,100243.63
2022-10-20T23:46:25.301Z,100251.66
2022-10-20T23:48:51.674Z,100234.22
2022-10-20T23:51:18.067Z,100221.84
2022-10-20T23:53:44.461Z,100213.09
2022-10-20T23:56:10.895Z,100214.81
2022-10-20T23:58:37.278Z,100212.97
